Robert E. Mcallister — WDC8669 — position and weather

sailwx.info

Track history (hours):
 
Tides and Currents Weather Stations Pressure Air Temp Water Temp Dewpoint Dewpoint Depression Visibility Wind Speed Wind Dir Waves Ship Positions

Robert E. Mcallister

Owner: McAllister Towing & Transportation, Staten Island, NY. More information available from US FCC via Universal Licensing System and Coast Guard Vessel Documentation Center.

Last reported at 2014-Oct-31 04:33 UTC. Time now 2014-Oct-31 05:37 UTC.
Position N 40°38' W 074°10'.

Length 34 m; draft 4.3 m.

Type: Tug. MMSI: 367091120.

Date/timePositionNaut miles runAvg speedWind from/ knotsBaromVisibWave heightAir tempDewpointWater temp
2014-Oct-31 04:33N 40°38' W 074°10'0 0.0
2014-Oct-31 03:33N 40°38' W 074°10'0 0.0
2014-Oct-31 02:33N 40°38' W 074°10'5 4.6
2014-Oct-31 01:33N 40°39' W 074°04'2 1.6
2014-Oct-31 00:33N 40°39' W 074°06'0 0.3
2014-Oct-30 23:33N 40°39' W 074°06'3 2.7
2014-Oct-30 22:33N 40°41' W 074°09'2 1.5
2014-Oct-30 21:33N 40°39' W 074°09'5 4.8
2014-Oct-30 20:33N 40°37' W 074°03'5 5.3
2014-Oct-30 19:33N 40°38' W 074°10'0 0.0
2014-Oct-30 18:33N 40°38' W 074°10'0 0.0
2014-Oct-30 17:33N 40°38' W 074°10'0 0.0
2014-Oct-30 16:33N 40°38' W 074°10'2 1.9
2014-Oct-30 15:33N 40°40' W 074°08'3 3.1
2014-Oct-30 14:33N 40°39' W 074°05'1 1.0
2014-Oct-30 13:33N 40°39' W 074°06'3 3.0
2014-Oct-30 12:32N 40°38' W 074°10'0 0.0
2014-Oct-30 11:26N 40°38' W 074°10'0 0.0
2014-Oct-30 10:33N 40°38' W 074°10'0 0.0
2014-Oct-30 09:18N 40°38' W 074°10'0 0.0
2014-Oct-30 08:33N 40°38' W 074°10'0 0.0
2014-Oct-30 07:33N 40°38' W 074°10'0 0.0
2014-Oct-30 06:26N 40°38' W 074°10'0 0.0
2014-Oct-30 05:25N 40°38' W 074°10'0 0.0
2014-Oct-30 04:32N 40°38' W 074°10'0 0.0
2014-Oct-30 02:15N 40°38' W 074°10'0 0.0
2014-Oct-30 01:26N 40°38' W 074°10'0 0.0
2014-Oct-30 00:26N 40°38' W 074°10'1 0.7
2014-Oct-29 23:31N 40°39' W 074°09'2 2.1
2014-Oct-29 22:33N 40°41' W 074°09'2 2.5
2014-Oct-29 21:33N 40°38' W 074°10'0 0.0
2014-Oct-29 20:33N 40°38' W 074°10'9 2.7
2014-Oct-29 17:21N 40°31' W 074°15'7 3.9
2014-Oct-29 15:26N 40°38' W 074°12'2 2.1
2014-Oct-29 14:33N 40°38' W 074°10'0 0.0
2014-Oct-29 13:33N 40°38' W 074°10'0 0.0
2014-Oct-29 12:33N 40°38' W 074°10'0 0.0
2014-Oct-29 11:33N 40°38' W 074°10'3 2.7
2014-Oct-29 10:33N 40°39' W 074°06'2 1.7
2014-Oct-29 09:33N 40°40' W 074°05'1 0.8
2014-Oct-29 08:33N 40°40' W 074°04'0 0.0
2014-Oct-29 07:34N 40°40' W 074°04'4 4.4
2014-Oct-29 06:33N 40°38' W 074°10'1 1.2
2014-Oct-29 05:33N 40°40' W 074°09'3 2.9
2014-Oct-29 04:33N 40°38' W 074°12'3 3.2
2014-Oct-29 03:34N 40°39' W 074°08'2 2.5
2014-Oct-29 02:34N 40°39' W 074°05'4 3.7
2014-Oct-29 01:30N 40°38' W 074°10'0 0.0
2014-Oct-29 00:33N 40°38' W 074°10'0 0.0
2014-Oct-28 23:04N 40°38' W 074°10'0 0.0
2014-Oct-28 22:33N 40°38' W 074°10'4 4.3
2014-Oct-28 21:33N 40°40' W 074°05'2 1.8
2014-Oct-28 20:34N 40°39' W 074°03'1 0.7
2014-Oct-28 19:33N 40°39' W 074°03'5 4.8
2014-Oct-28 18:33N 40°38' W 074°10'0 0.1
2014-Oct-28 17:30N 40°38' W 074°10'0 0.0
2014-Oct-28 16:33N 40°38' W 074°10'0 0.0
2014-Oct-28 15:29N 40°38' W 074°10'0 0.0
2014-Oct-28 14:33N 40°38' W 074°10'0 0.0
2014-Oct-28 13:30N 40°38' W 074°10'2 2.6
2014-Oct-28 12:34N 40°41' W 074°09'0 0.5
2014-Oct-28 11:34N 40°41' W 074°08'2 2.2
2014-Oct-28 10:33N 40°39' W 074°07'1 0.5
2014-Oct-28 09:34N 40°39' W 074°06'3 3.1
2014-Oct-28 08:33N 40°38' W 074°10'0 0.0
2014-Oct-28 07:33N 40°38' W 074°10'0 0.0
2014-Oct-28 06:33N 40°38' W 074°10'0 0.0
2014-Oct-28 05:33N 40°38' W 074°10'0 0.0
2014-Oct-28 04:34N 40°38' W 074°10'0 0.0
2014-Oct-28 03:34N 40°38' W 074°10'2 2.4
2014-Oct-28 02:33N 40°41' W 074°09'0 0.3
2014-Oct-28 01:33N 40°40' W 074°08'0 0.0
2014-Oct-28 00:33N 40°40' W 074°08'0 0.0
2014-Oct-27 23:33N 40°40' W 074°08'0 0.0
2014-Oct-27 22:33N 40°40' W 074°08'0 0.0
2014-Oct-27 21:33N 40°40' W 074°08'0 0.0
2014-Oct-27 20:33N 40°40' W 074°08'0 0.0
2014-Oct-27 19:33N 40°40' W 074°08'0 0.0
2014-Oct-27 18:33N 40°40' W 074°08'0 0.0
2014-Oct-27 17:33N 40°40' W 074°08'0 0.0
2014-Oct-27 16:33N 40°40' W 074°08'2 2.3
2014-Oct-27 15:33N 40°38' W 074°10'3 3.4
2014-Oct-27 14:33N 40°42' W 074°09'3 3.1
2014-Oct-27 13:30N 40°39' W 074°09'6 6.6
2014-Oct-27 12:33N 40°42' W 074°02'4 4.0
2014-Oct-27 11:33N 40°38' W 074°03'2 2.2
2014-Oct-27 10:33N 40°40' W 074°04'1 1.1
2014-Oct-27 09:33N 40°39' W 074°03'1 1.4
2014-Oct-27 08:33N 40°39' W 074°05'3 2.8
2014-Oct-27 07:33N 40°40' W 074°09'1 0.6
2014-Oct-27 06:33N 40°39' W 074°09'1 0.9
2014-Oct-27 05:33N 40°38' W 074°10'1 0.2
2014-Oct-27 01:33N 40°39' W 074°09'1 1.0
2014-Oct-27 00:33N 40°40' W 074°08'5 4.6
2014-Oct-26 23:33N 40°38' W 074°03'5 5.2
2014-Oct-26 22:33N 40°38' W 074°10'0 0.0
2014-Oct-26 21:33N 40°38' W 074°10'0 0.0
2014-Oct-26 20:33N 40°38' W 074°10'0 0.0
2014-Oct-26 19:25N 40°38' W 074°10'1 1.4
2014-Oct-26 18:33N 40°39' W 074°09'2 2.2
2014-Oct-26 17:32N 40°42' W 074°08'3 3.4
2014-Oct-26 16:33N 40°38' W 074°10'0 0.0
2014-Oct-26 15:33N 40°38' W 074°10'0 0.0
2014-Oct-26 14:33N 40°38' W 074°10'0 0.4
2014-Oct-26 13:33N 40°38' W 074°09'2 1.9
2014-Oct-26 12:33N 40°40' W 074°08'0 0.2
2014-Oct-26 11:33N 40°40' W 074°08'2 2.3
2014-Oct-26 10:33N 40°38' W 074°10'1 0.8
2014-Oct-26 09:32N 40°39' W 074°09'9 8.9
2014-Oct-26 08:33N 40°42' W 073°58'0 0.0
2014-Oct-26 07:33N 40°42' W 073°58'0 0.0
2014-Oct-26 06:33N 40°42' W 073°58'0 0.0
2014-Oct-26 05:33N 40°42' W 073°58'0 0.0
2014-Oct-26 04:33N 40°42' W 073°58'0 0.1
2014-Oct-26 03:33N 40°42' W 073°58'1 1.2
2014-Oct-26 02:33N 40°42' W 074°00'6 5.7
2014-Oct-26 01:33N 40°39' W 074°06'3 2.8
2014-Oct-26 00:33N 40°38' W 074°10'1 1.3
2014-Oct-25 23:33N 40°40' W 074°09'0 0.0
2014-Oct-25 22:33N 40°40' W 074°09'0 0.4
2014-Oct-25 21:26N 40°40' W 074°08'4 3.8
2014-Oct-25 20:26N 40°39' W 074°04'5 5.1
2014-Oct-25 19:32N 40°38' W 074°10'0 0.0
2014-Oct-25 18:33N 40°38' W 074°10'0 0.0
2014-Oct-25 17:33N 40°38' W 074°10'0 0.0
2014-Oct-25 16:32N 40°38' W 074°10'0 0.0
2014-Oct-25 15:33N 40°38' W 074°10'0 0.0
2014-Oct-25 14:28N 40°38' W 074°10'5 4.2
2014-Oct-25 13:10N 40°34' W 074°13'2 2.9
2014-Oct-25 12:25N 40°32' W 074°15'6 6.5
2014-Oct-25 11:32N 40°37' W 074°12'4 3.8
2014-Oct-25 10:34N 40°40' W 074°09'4 4.3
2014-Oct-25 09:34N 40°38' W 074°03'5 5.0
2014-Oct-25 08:33N 40°38' W 074°10'0 0.0
2014-Oct-25 06:33N 40°38' W 074°10'4 4.2
2014-Oct-25 05:33N 40°39' W 074°04'1 0.7
2014-Oct-25 04:34N 40°40' W 074°04'5 4.4
2014-Oct-25 03:32N 40°38' W 074°10'0 0.0
2014-Oct-25 02:34N 40°38' W 074°10'0 0.0
2014-Oct-25 01:33N 40°38' W 074°10'2 2.4
2014-Oct-25 00:33N 40°39' W 074°07'2 2.2
2014-Oct-24 23:28N 40°38' W 074°10'0 0.0
2014-Oct-24 22:31N 40°38' W 074°10'0 0.0
2014-Oct-24 21:30N 40°38' W 074°10'0 0.0
2014-Oct-24 20:29N 40°38' W 074°10'0 0.0
2014-Oct-24 19:32N 40°38' W 074°10'0 0.0
2014-Oct-24 18:33N 40°38' W 074°10'0 0.0
2014-Oct-24 17:33N 40°38' W 074°10'0 0.0
2014-Oct-24 13:33N 40°38' W 074°10'0 0.0
2014-Oct-24 12:33N 40°38' W 074°10'0 0.0
2014-Oct-24 11:34N 40°38' W 074°10'2 2.0
2014-Oct-24 10:33N 40°40' W 074°08'2 2.4
2014-Oct-24 09:34N 40°39' W 074°06'0 0.5
2014-Oct-24 08:33N 40°39' W 074°06'0 0.2
2014-Oct-24 07:30N 40°39' W 074°07'2 1.7
2014-Oct-24 06:33N 40°39' W 074°05'2 2.1
2014-Oct-24 05:33N 40°39' W 074°07'2 1.9
2014-Oct-24 04:33N 40°38' W 074°10'2 1.6
2014-Oct-24 03:33N 40°40' W 074°09'0 0.2
2014-Oct-24 02:33N 40°40' W 074°09'0 0.1
2014-Oct-24 01:33N 40°40' W 074°09'1 1.3
2014-Oct-24 00:33N 40°38' W 074°10'0 0.0
2014-Oct-23 23:34N 40°38' W 074°10'0 0.0
2014-Oct-23 22:34N 40°38' W 074°10'0 0.0
2014-Oct-23 21:33N 40°38' W 074°10'0 0.0
2014-Oct-23 20:34N 40°38' W 074°10'0 0.0
2014-Oct-23 19:18N 40°38' W 074°10'0 0.0
2014-Oct-23 18:29N 40°38' W 074°10'0 0.0
2014-Oct-23 17:31N 40°38' W 074°10'1 1.4
2014-Oct-23 16:33N 40°40' W 074°09'0 0.0
2014-Oct-23 15:34N 40°40' W 074°09'0 0.1
2014-Oct-23 14:33N 40°40' W 074°09'0 0.1
2014-Oct-23 13:33N 40°40' W 074°09'0 0.1
2014-Oct-23 12:32N 40°40' W 074°09'0 0.4
2014-Oct-23 11:32N 40°39' W 074°09'2 2.3
2014-Oct-23 10:33N 40°39' W 074°06'2 1.7
2014-Oct-23 09:34N 40°40' W 074°04'0 0.0
2014-Oct-23 08:33N 40°40' W 074°04'0 0.0
2014-Oct-23 07:33N 40°40' W 074°04'0 0.1
2014-Oct-23 06:33N 40°40' W 074°04'1 0.6
2014-Oct-23 05:33N 40°40' W 074°05'0 0.0
2014-Oct-23 04:34N 40°40' W 074°05'0 0.0
2014-Oct-23 03:34N 40°40' W 074°05'0 0.0
2014-Oct-23 02:33N 40°40' W 074°05'0 0.2
2014-Oct-23 01:33N 40°40' W 074°05'4 4.2
2014-Oct-23 00:34N 40°38' W 074°10'1 1.4
2014-Oct-22 23:34N 40°40' W 074°09'5 4.7
2014-Oct-22 22:34N 40°38' W 074°03'5 5.1
2014-Oct-22 21:34N 40°38' W 074°10'0 0.5
2014-Oct-22 20:34N 40°39' W 074°09'2 2.2
2014-Oct-22 19:34N 40°41' W 074°09'2 2.3
2014-Oct-22 18:33N 40°39' W 074°08'4 3.9
2014-Oct-22 17:34N 40°37' W 074°03'3 3.0
2014-Oct-22 16:33N 40°39' W 074°06'2 1.9
2014-Oct-22 15:33N 40°39' W 074°09'2 2.0
2014-Oct-22 14:33N 40°41' W 074°08'4 4.4
2014-Oct-22 13:34N 40°38' W 074°03'3 2.6
2014-Oct-22 12:34N 40°39' W 074°07'2 2.2
2014-Oct-22 11:34N 40°40' W 074°04'1 0.8
2014-Oct-22 10:33N 40°40' W 074°05'2 1.8
2014-Oct-22 09:33N 40°39' W 074°03'1 0.8
2014-Oct-22 08:33N 40°40' W 074°04'5 4.6
2014-Oct-22 07:34N 40°38' W 074°10'0 0.0
2014-Oct-22 06:34N 40°38' W 074°10'0 0.0
2014-Oct-22 05:33N 40°38' W 074°10'0 0.0
2014-Oct-22 04:33N 40°38' W 074°10'0 0.0
2014-Oct-22 03:33N 40°38' W 074°10'0 0.0
2014-Oct-22 02:33N 40°38' W 074°10'0 0.0
2014-Oct-22 01:33N 40°38' W 074°10'4 1.9
2014-Oct-21 23:25N 40°35' W 074°13'2 0.8
2014-Oct-21 21:33N 40°36' W 074°12'3 2.7
2014-Oct-21 20:34N 40°38' W 074°10'0 0.0
2014-Oct-21 19:33N 40°38' W 074°10'0 0.0
2014-Oct-21 18:33N 40°38' W 074°10'0 0.0
2014-Oct-21 17:33N 40°38' W 074°10'4 3.7
2014-Oct-21 16:33N 40°39' W 074°05'1 1.3
2014-Oct-21 15:33N 40°40' W 074°05'0 0.1
2014-Oct-21 14:33N 40°40' W 074°05'1 0.9
2014-Oct-21 13:33N 40°40' W 074°04'2 2.3
2014-Oct-21 12:34N 40°39' W 074°07'3 3.2
2014-Oct-21 11:33N 40°42' W 074°08'2 1.7
2014-Oct-21 10:33N 40°40' W 074°08'1 0.7
2014-Oct-21 09:33N 40°40' W 074°09'1 1.3
2014-Oct-21 08:34N 40°38' W 074°10'2 2.1
2014-Oct-21 07:33N 40°40' W 074°08'0 0.0
2014-Oct-21 06:33N 40°40' W 074°08'0 0.2
2014-Oct-21 05:33N 40°40' W 074°08'  
Track history (hours):
 
Tides and Currents Weather Stations Pressure Air Temp Water Temp Dewpoint Dewpoint Depression Visibility Wind Speed Wind Dir Waves Ship Positions

Robert E. Mcallister

Owner: McAllister Towing & Transportation, Staten Island, NY. More information available from US FCC via Universal Licensing System and Coast Guard Vessel Documentation Center.

Last reported at 2014-Oct-31 04:33 UTC. Time now 2014-Oct-31 05:37 UTC.
Position N 40°38' W 074°10'.

Length 34 m; draft 4.3 m.

Type: Tug. MMSI: 367091120.

Date/timePositionNaut miles runAvg speedWind from/ knotsBaromVisibWave heightAir tempDewpointWater temp
2014-Oct-31 04:33N 40°38' W 074°10'0 0.0
2014-Oct-31 03:33N 40°38' W 074°10'0 0.0
2014-Oct-31 02:33N 40°38' W 074°10'5 4.6
2014-Oct-31 01:33N 40°39' W 074°04'2 1.6
2014-Oct-31 00:33N 40°39' W 074°06'0 0.3
2014-Oct-30 23:33N 40°39' W 074°06'3 2.7
2014-Oct-30 22:33N 40°41' W 074°09'2 1.5
2014-Oct-30 21:33N 40°39' W 074°09'5 4.8
2014-Oct-30 20:33N 40°37' W 074°03'5 5.3
2014-Oct-30 19:33N 40°38' W 074°10'0 0.0
2014-Oct-30 18:33N 40°38' W 074°10'0 0.0
2014-Oct-30 17:33N 40°38' W 074°10'0 0.0
2014-Oct-30 16:33N 40°38' W 074°10'2 1.9
2014-Oct-30 15:33N 40°40' W 074°08'3 3.1
2014-Oct-30 14:33N 40°39' W 074°05'1 1.0
2014-Oct-30 13:33N 40°39' W 074°06'3 3.0
2014-Oct-30 12:32N 40°38' W 074°10'0 0.0
2014-Oct-30 11:26N 40°38' W 074°10'0 0.0
2014-Oct-30 10:33N 40°38' W 074°10'0 0.0
2014-Oct-30 09:18N 40°38' W 074°10'0 0.0
2014-Oct-30 08:33N 40°38' W 074°10'0 0.0
2014-Oct-30 07:33N 40°38' W 074°10'0 0.0
2014-Oct-30 06:26N 40°38' W 074°10'0 0.0
2014-Oct-30 05:25N 40°38' W 074°10'0 0.0
2014-Oct-30 04:32N 40°38' W 074°10'0 0.0
2014-Oct-30 02:15N 40°38' W 074°10'0 0.0
2014-Oct-30 01:26N 40°38' W 074°10'0 0.0
2014-Oct-30 00:26N 40°38' W 074°10'1 0.7
2014-Oct-29 23:31N 40°39' W 074°09'2 2.1
2014-Oct-29 22:33N 40°41' W 074°09'2 2.5
2014-Oct-29 21:33N 40°38' W 074°10'0 0.0
2014-Oct-29 20:33N 40°38' W 074°10'9 2.7
2014-Oct-29 17:21N 40°31' W 074°15'7 3.9
2014-Oct-29 15:26N 40°38' W 074°12'2 2.1
2014-Oct-29 14:33N 40°38' W 074°10'0 0.0
2014-Oct-29 13:33N 40°38' W 074°10'0 0.0
2014-Oct-29 12:33N 40°38' W 074°10'0 0.0
2014-Oct-29 11:33N 40°38' W 074°10'3 2.7
2014-Oct-29 10:33N 40°39' W 074°06'2 1.7
2014-Oct-29 09:33N 40°40' W 074°05'1 0.8
2014-Oct-29 08:33N 40°40' W 074°04'0 0.0
2014-Oct-29 07:34N 40°40' W 074°04'4 4.4
2014-Oct-29 06:33N 40°38' W 074°10'1 1.2
2014-Oct-29 05:33N 40°40' W 074°09'3 2.9
2014-Oct-29 04:33N 40°38' W 074°12'3 3.2
2014-Oct-29 03:34N 40°39' W 074°08'2 2.5
2014-Oct-29 02:34N 40°39' W 074°05'4 3.7
2014-Oct-29 01:30N 40°38' W 074°10'0 0.0
2014-Oct-29 00:33N 40°38' W 074°10'0 0.0
2014-Oct-28 23:04N 40°38' W 074°10'0 0.0
2014-Oct-28 22:33N 40°38' W 074°10'4 4.3
2014-Oct-28 21:33N 40°40' W 074°05'2 1.8
2014-Oct-28 20:34N 40°39' W 074°03'1 0.7
2014-Oct-28 19:33N 40°39' W 074°03'5 4.8
2014-Oct-28 18:33N 40°38' W 074°10'0 0.1
2014-Oct-28 17:30N 40°38' W 074°10'0 0.0
2014-Oct-28 16:33N 40°38' W 074°10'0 0.0
2014-Oct-28 15:29N 40°38' W 074°10'0 0.0
2014-Oct-28 14:33N 40°38' W 074°10'0 0.0
2014-Oct-28 13:30N 40°38' W 074°10'2 2.6
2014-Oct-28 12:34N 40°41' W 074°09'0 0.5
2014-Oct-28 11:34N 40°41' W 074°08'2 2.2
2014-Oct-28 10:33N 40°39' W 074°07'1 0.5
2014-Oct-28 09:34N 40°39' W 074°06'3 3.1
2014-Oct-28 08:33N 40°38' W 074°10'0 0.0
2014-Oct-28 07:33N 40°38' W 074°10'0 0.0
2014-Oct-28 06:33N 40°38' W 074°10'0 0.0
2014-Oct-28 05:33N 40°38' W 074°10'0 0.0
2014-Oct-28 04:34N 40°38' W 074°10'0 0.0
2014-Oct-28 03:34N 40°38' W 074°10'2 2.4
2014-Oct-28 02:33N 40°41' W 074°09'0 0.3
2014-Oct-28 01:33N 40°40' W 074°08'0 0.0
2014-Oct-28 00:33N 40°40' W 074°08'0 0.0
2014-Oct-27 23:33N 40°40' W 074°08'0 0.0
2014-Oct-27 22:33N 40°40' W 074°08'0 0.0
2014-Oct-27 21:33N 40°40' W 074°08'0 0.0
2014-Oct-27 20:33N 40°40' W 074°08'0 0.0
2014-Oct-27 19:33N 40°40' W 074°08'0 0.0
2014-Oct-27 18:33N 40°40' W 074°08'0 0.0
2014-Oct-27 17:33N 40°40' W 074°08'0 0.0
2014-Oct-27 16:33N 40°40' W 074°08'2 2.3
2014-Oct-27 15:33N 40°38' W 074°10'3 3.4
2014-Oct-27 14:33N 40°42' W 074°09'3 3.1
2014-Oct-27 13:30N 40°39' W 074°09'6 6.6
2014-Oct-27 12:33N 40°42' W 074°02'4 4.0
2014-Oct-27 11:33N 40°38' W 074°03'2 2.2
2014-Oct-27 10:33N 40°40' W 074°04'1 1.1
2014-Oct-27 09:33N 40°39' W 074°03'1 1.4
2014-Oct-27 08:33N 40°39' W 074°05'3 2.8
2014-Oct-27 07:33N 40°40' W 074°09'1 0.6
2014-Oct-27 06:33N 40°39' W 074°09'1 0.9
2014-Oct-27 05:33N 40°38' W 074°10'1 0.2
2014-Oct-27 01:33N 40°39' W 074°09'1 1.0
2014-Oct-27 00:33N 40°40' W 074°08'5 4.6
2014-Oct-26 23:33N 40°38' W 074°03'5 5.2
2014-Oct-26 22:33N 40°38' W 074°10'0 0.0
2014-Oct-26 21:33N 40°38' W 074°10'0 0.0
2014-Oct-26 20:33N 40°38' W 074°10'0 0.0
2014-Oct-26 19:25N 40°38' W 074°10'1 1.4
2014-Oct-26 18:33N 40°39' W 074°09'2 2.2
2014-Oct-26 17:32N 40°42' W 074°08'3 3.4
2014-Oct-26 16:33N 40°38' W 074°10'0 0.0
2014-Oct-26 15:33N 40°38' W 074°10'0 0.0
2014-Oct-26 14:33N 40°38' W 074°10'0 0.4
2014-Oct-26 13:33N 40°38' W 074°09'2 1.9
2014-Oct-26 12:33N 40°40' W 074°08'0 0.2
2014-Oct-26 11:33N 40°40' W 074°08'2 2.3
2014-Oct-26 10:33N 40°38' W 074°10'1 0.8
2014-Oct-26 09:32N 40°39' W 074°09'9 8.9
2014-Oct-26 08:33N 40°42' W 073°58'0 0.0
2014-Oct-26 07:33N 40°42' W 073°58'0 0.0
2014-Oct-26 06:33N 40°42' W 073°58'0 0.0
2014-Oct-26 05:33N 40°42' W 073°58'0 0.0
2014-Oct-26 04:33N 40°42' W 073°58'0 0.1
2014-Oct-26 03:33N 40°42' W 073°58'1 1.2
2014-Oct-26 02:33N 40°42' W 074°00'6 5.7
2014-Oct-26 01:33N 40°39' W 074°06'3 2.8
2014-Oct-26 00:33N 40°38' W 074°10'1 1.3
2014-Oct-25 23:33N 40°40' W 074°09'0 0.0
2014-Oct-25 22:33N 40°40' W 074°09'0 0.4
2014-Oct-25 21:26N 40°40' W 074°08'4 3.8
2014-Oct-25 20:26N 40°39' W 074°04'5 5.1
2014-Oct-25 19:32N 40°38' W 074°10'0 0.0
2014-Oct-25 18:33N 40°38' W 074°10'0 0.0
2014-Oct-25 17:33N 40°38' W 074°10'0 0.0
2014-Oct-25 16:32N 40°38' W 074°10'0 0.0
2014-Oct-25 15:33N 40°38' W 074°10'0 0.0
2014-Oct-25 14:28N 40°38' W 074°10'5 4.2
2014-Oct-25 13:10N 40°34' W 074°13'2 2.9
2014-Oct-25 12:25N 40°32' W 074°15'6 6.5
2014-Oct-25 11:32N 40°37' W 074°12'4 3.8
2014-Oct-25 10:34N 40°40' W 074°09'4 4.3
2014-Oct-25 09:34N 40°38' W 074°03'5 5.0
2014-Oct-25 08:33N 40°38' W 074°10'0 0.0
2014-Oct-25 06:33N 40°38' W 074°10'4 4.2
2014-Oct-25 05:33N 40°39' W 074°04'1 0.7
2014-Oct-25 04:34N 40°40' W 074°04'5 4.4
2014-Oct-25 03:32N 40°38' W 074°10'0 0.0
2014-Oct-25 02:34N 40°38' W 074°10'0 0.0
2014-Oct-25 01:33N 40°38' W 074°10'2 2.4
2014-Oct-25 00:33N 40°39' W 074°07'2 2.2
2014-Oct-24 23:28N 40°38' W 074°10'0 0.0
2014-Oct-24 22:31N 40°38' W 074°10'0 0.0
2014-Oct-24 21:30N 40°38' W 074°10'0 0.0
2014-Oct-24 20:29N 40°38' W 074°10'0 0.0
2014-Oct-24 19:32N 40°38' W 074°10'0 0.0
2014-Oct-24 18:33N 40°38' W 074°10'0 0.0
2014-Oct-24 17:33N 40°38' W 074°10'0 0.0
2014-Oct-24 13:33N 40°38' W 074°10'0 0.0
2014-Oct-24 12:33N 40°38' W 074°10'0 0.0
2014-Oct-24 11:34N 40°38' W 074°10'2 2.0
2014-Oct-24 10:33N 40°40' W 074°08'2 2.4
2014-Oct-24 09:34N 40°39' W 074°06'0 0.5
2014-Oct-24 08:33N 40°39' W 074°06'0 0.2
2014-Oct-24 07:30N 40°39' W 074°07'2 1.7
2014-Oct-24 06:33N 40°39' W 074°05'2 2.1
2014-Oct-24 05:33N 40°39' W 074°07'2 1.9
2014-Oct-24 04:33N 40°38' W 074°10'2 1.6
2014-Oct-24 03:33N 40°40' W 074°09'0 0.2
2014-Oct-24 02:33N 40°40' W 074°09'0 0.1
2014-Oct-24 01:33N 40°40' W 074°09'1 1.3
2014-Oct-24 00:33N 40°38' W 074°10'0 0.0
2014-Oct-23 23:34N 40°38' W 074°10'0 0.0
2014-Oct-23 22:34N 40°38' W 074°10'0 0.0
2014-Oct-23 21:33N 40°38' W 074°10'0 0.0
2014-Oct-23 20:34N 40°38' W 074°10'0 0.0
2014-Oct-23 19:18N 40°38' W 074°10'0 0.0
2014-Oct-23 18:29N 40°38' W 074°10'0 0.0
2014-Oct-23 17:31N 40°38' W 074°10'1 1.4
2014-Oct-23 16:33N 40°40' W 074°09'0 0.0
2014-Oct-23 15:34N 40°40' W 074°09'0 0.1
2014-Oct-23 14:33N 40°40' W 074°09'0 0.1
2014-Oct-23 13:33N 40°40' W 074°09'0 0.1
2014-Oct-23 12:32N 40°40' W 074°09'0 0.4
2014-Oct-23 11:32N 40°39' W 074°09'2 2.3
2014-Oct-23 10:33N 40°39' W 074°06'2 1.7
2014-Oct-23 09:34N 40°40' W 074°04'0 0.0
2014-Oct-23 08:33N 40°40' W 074°04'0 0.0
2014-Oct-23 07:33N 40°40' W 074°04'0 0.1
2014-Oct-23 06:33N 40°40' W 074°04'1 0.6
2014-Oct-23 05:33N 40°40' W 074°05'0 0.0
2014-Oct-23 04:34N 40°40' W 074°05'0 0.0
2014-Oct-23 03:34N 40°40' W 074°05'0 0.0
2014-Oct-23 02:33N 40°40' W 074°05'0 0.2
2014-Oct-23 01:33N 40°40' W 074°05'4 4.2
2014-Oct-23 00:34N 40°38' W 074°10'1 1.4
2014-Oct-22 23:34N 40°40' W 074°09'5 4.7
2014-Oct-22 22:34N 40°38' W 074°03'5 5.1
2014-Oct-22 21:34N 40°38' W 074°10'0 0.5
2014-Oct-22 20:34N 40°39' W 074°09'2 2.2
2014-Oct-22 19:34N 40°41' W 074°09'2 2.3
2014-Oct-22 18:33N 40°39' W 074°08'4 3.9
2014-Oct-22 17:34N 40°37' W 074°03'3 3.0
2014-Oct-22 16:33N 40°39' W 074°06'2 1.9
2014-Oct-22 15:33N 40°39' W 074°09'2 2.0
2014-Oct-22 14:33N 40°41' W 074°08'4 4.4
2014-Oct-22 13:34N 40°38' W 074°03'3 2.6
2014-Oct-22 12:34N 40°39' W 074°07'2 2.2
2014-Oct-22 11:34N 40°40' W 074°04'1 0.8
2014-Oct-22 10:33N 40°40' W 074°05'2 1.8
2014-Oct-22 09:33N 40°39' W 074°03'1 0.8
2014-Oct-22 08:33N 40°40' W 074°04'5 4.6
2014-Oct-22 07:34N 40°38' W 074°10'0 0.0
2014-Oct-22 06:34N 40°38' W 074°10'0 0.0
2014-Oct-22 05:33N 40°38' W 074°10'0 0.0
2014-Oct-22 04:33N 40°38' W 074°10'0 0.0
2014-Oct-22 03:33N 40°38' W 074°10'0 0.0
2014-Oct-22 02:33N 40°38' W 074°10'0 0.0
2014-Oct-22 01:33N 40°38' W 074°10'4 1.9
2014-Oct-21 23:25N 40°35' W 074°13'2 0.8
2014-Oct-21 21:33N 40°36' W 074°12'3 2.7
2014-Oct-21 20:34N 40°38' W 074°10'0 0.0
2014-Oct-21 19:33N 40°38' W 074°10'0 0.0
2014-Oct-21 18:33N 40°38' W 074°10'0 0.0
2014-Oct-21 17:33N 40°38' W 074°10'4 3.7
2014-Oct-21 16:33N 40°39' W 074°05'1 1.3
2014-Oct-21 15:33N 40°40' W 074°05'0 0.1
2014-Oct-21 14:33N 40°40' W 074°05'1 0.9
2014-Oct-21 13:33N 40°40' W 074°04'2 2.3
2014-Oct-21 12:34N 40°39' W 074°07'3 3.2
2014-Oct-21 11:33N 40°42' W 074°08'2 1.7
2014-Oct-21 10:33N 40°40' W 074°08'1 0.7
2014-Oct-21 09:33N 40°40' W 074°09'1 1.3
2014-Oct-21 08:34N 40°38' W 074°10'2 2.1
2014-Oct-21 07:33N 40°40' W 074°08'0 0.0
2014-Oct-21 06:33N 40°40' W 074°08'0 0.2
2014-Oct-21 05:33N 40°40' W 074°08'  

Dump ship's entire track history